KGRB/GRB METAR and TAF weather

Enter ICAO airport designator
Station Type Date Time Source
KGRB METAR 2022/01/25 04:53 UTC NOAA

KGRB 250453Z 30005KT 10SM CLR M16/M22 A3000 RMK AO2 SLP176 T11611217


Station Type Date Time Source
KGRB Decoded METAR 2022/01/25 04:53 UTC NOAA

AUSTIN STRAUBEL INTERNATIONAL AIRPORT , WI, United States (KGRB) 44-29N 088-08W 205M
Jan 24, 2022 - 11:53 PM EST / 2022.01.25 0453 UTC
Wind: from the WNW (300 degrees) at 6 MPH (5 KT):0
Visibility: 10 mile(s):0
Sky conditions: clear
Temperature: 3.0 F (-16.1 C)
Windchill: -7 F (-22 C):2
Dew Point: -7.1 F (-21.7 C)
Relative Humidity: 61%
Pressure (altimeter): 30 in. Hg (1015 hPa)
ob: KGRB 250453Z 30005KT 10SM CLR M16/M22 A3000 RMK AO2 SLP176 T11611217
cycle: 5

Station Type Date Time Source
KGRB TAF 2022/01/24 18:22 UTC NOAA

TAF KGRB 241720Z 2418/2518 34011G20KT P6SM BKN035
FM242300 33009G14KT P6SM SCT040
FM250400 32007KT P6SM SKC
FM251500 30009G14KT P6SM SKC

Example: see airport list